Latest Coastal Weather Observations for Broome Port

IDW60701

Issued at 10:25 am WST Thursday 21 August 2014 (issued every 10 minutes, with the page automatically refreshed every 10 minutes)

About coastal observations | Map of coastal stations | Coastal observations for WA | Marine services | Other Formats
Station Details ID: 003102 Name: BROOME NTC AWS Lat: -18.00 Lon: 122.22 Height: 0.0 m
Data from the previous 72 hours. | See also: Recent months for locations in Western Australia
Date/Time
WST
Temp

°C
Wind Pressure Rain
since 9am
mm
Weather Cloud Vis
km
Sea
Height
m
Swell
Dir
 
Speed
knots
Gust
knots
hPa Trend Height
m
Period
s
Dir
21/08:00am 18.2 SE 5 6 1015.3 - - - - - - - - -
21/07:30am 18.3 ESE 5 6 1015.0 - - - - - - - - -
21/07:00am 18.1 ESE 5 5 1014.8 - - - - - - - - -
21/06:30am 18.8 ESE 4 5 1014.5 - - - - - - - - -
21/06:00am 18.7 ESE 7 7 1014.1 - - - - - - - - -
21/05:30am 19.4 SE 5 5 1013.6 - - - - - - - - -
21/05:00am 19.9 S 4 5 1013.2 - - - - - - - - -
21/04:30am 20.0 SSE 3 4 1013.2 - - - - - - - - -
21/04:00am 19.9 SSW 4 5 1013.2 - - - - - - - - -
21/03:30am 19.6 S 2 2 1013.2 - - - - - - - - -
21/03:00am 19.7 S 1 3 1013.4 - - - - - - - - -
21/02:30am 19.5 SE 1 2 1013.5 - - - - - - - - -
21/02:00am 19.5 S 3 4 1013.6 - - - - - - - - -
21/01:30am 20.0 S 4 4 1013.8 - - - - - - - - -
21/01:00am 19.9 SSW 2 2 1013.9 - - - - - - - - -
21/12:30am 20.1 SSW 3 4 1014.1 - - - - - - - - -
21/12:00am 20.7 WSW 4 6 1014.3 - - - - - - - - -
 
Date/Time
WST
Temp

°C
Wind Pressure Rain
since 9am
mm
Weather Cloud Vis
km
Sea
Height
m
Swell
Dir
 
Speed
knots
Gust
knots
hPa Trend Height
m
Period
s
Dir
20/11:30pm 20.9 WSW 6 6 1014.4 - - - - - - - - -
20/11:00pm 20.9 WSW 3 4 1014.5 - - - - - - - - -
20/10:30pm 21.5 W 2 3 1014.6 - - - - - - - - -
20/10:00pm 21.6 W 4 5 1014.6 - - - - - - - - -
20/09:30pm 20.9 NW 3 5 1014.7 - - - - - - - - -
20/09:00pm 21.2 WNW 5 5 1014.7 - - - - - - - - -
20/08:30pm 21.5 NW 5 6 1014.6 - - - - - - - - -
20/08:00pm 21.7 WNW 3 4 1014.4 - - - - - - - - -
20/07:30pm 21.7 NNW 4 6 1014.0 - - - - - - - - -
20/07:00pm 21.3 NNW 4 5 1013.6 - - - - - - - - -
20/06:30pm 22.3 W 7 9 1013.0 - - - - - - - - -
20/06:00pm 21.7 NW 6 8 1012.9 - - - - - - - - -
20/05:30pm 21.8 NW 7 8 1012.8 - - - - - - - - -
20/05:00pm 21.9 WSW 12 13 1012.5 - - - - - - - - -
20/04:30pm 22.1 WSW 13 15 1012.3 - - - - - - - - -
20/04:00pm 22.6 WSW 14 17 1012.2 - - - - - - - - -
20/03:30pm 23.3 WSW 13 16 1012.1 - - - - - - - - -
20/03:00pm 24.5 WSW 12 14 1012.2 - - - - - - - - -
20/02:30pm 23.9 WSW 11 13 1012.4 - - - - - - - - -
20/02:00pm 25.3 WSW 11 13 1012.6 - - - - - - - - -
20/01:30pm 26.4 WSW 10 11 1012.9 - - - - - - - - -
20/01:00pm 26.4 SW 6 7 1013.4 - - - - - - - - -
20/12:30pm 27.0 S 3 4 1014.1 - - - - - - - - -
20/12:00pm 27.2 SE 4 5 1014.5 - - - - - - - - -
20/11:30am 25.5 ESE 4 5 1015.0 - - - - - - - - -
20/11:00am 24.0 ESE 4 6 1015.5 - - - - - - - - -
20/10:30am 22.0 SE 4 5 1016.0 - - - - - - - - -
20/10:00am 19.7 ESE 4 5 1016.3 - - - - - - - - -
20/09:30am 19.4 SSE 6 7 1016.4 - - - - - - - - -
20/09:00am 19.5 S 7 8 1016.5 - - - - - - - - -
20/08:30am 19.1 SSE 7 8 1016.2 - - - - - - - - -
20/08:00am 18.9 SSE 8 9 1016.2 - - - - - - - - -
20/07:30am 19.4 SSE 7 9 1015.8 - - - - - - - - -
20/07:00am 18.9 SSE 7 8 1015.6 - - - - - - - - -
20/06:30am 18.2 SSE 7 8 1015.5 - - - - - - - - -
20/06:00am 18.5 S 8 9 1015.3 - - - - - - - - -
20/05:30am 18.5 S 8 9 1014.9 - - - - - - - - -
20/05:00am 18.3 SSW 6 7 1014.7 - - - - - - - - -
20/04:30am 19.0 WSW 4 5 1014.4 - - - - - - - - -
20/04:00am 19.0 SW 4 5 1014.1 - - - - - - - - -
20/03:30am 19.2 SW 3 3 1014.2 - - - - - - - - -
20/03:00am 19.8 WNW 2 3 1014.3 - - - - - - - - -
20/02:30am 19.8 NNW 2 4 1014.4 - - - - - - - - -
20/02:00am 19.2 N 3 5 1014.5 - - - - - - - - -
20/01:30am 19.0 N 3 5 1014.8 - - - - - - - - -
20/01:00am 19.1 NNE 2 4 1015.0 - - - - - - - - -
20/12:30am 19.2 NNW 4 5 1015.1 - - - - - - - - -
20/12:00am 20.3 N 8 8 1015.3 - - - - - - - - -
 
Date/Time
WST
Temp

°C
Wind Pressure Rain
since 9am
mm
Weather Cloud Vis
km
Sea
Height
m
Swell
Dir
 
Speed
knots
Gust
knots
hPa Trend Height
m
Period
s
Dir
19/11:30pm 19.5 N 6 8 1015.6 - - - - - - - - -
19/11:00pm 19.1 NNE 5 7 1015.8 - - - - - - - - -
19/10:30pm 20.4 N 5 6 1016.0 - - - - - - - - -
19/10:00pm 20.2 NNW 2 3 1015.9 - - - - - - - - -
19/09:30pm 20.4 N 4 4 1015.9 - - - - - - - - -
19/09:00pm 20.7 NW 3 4 1015.8 - - - - - - - - -
19/08:30pm 21.2 N 4 6 1015.6 - - - - - - - - -
19/08:00pm 20.9 NNW 4 5 1015.4 - - - - - - - - -
19/07:30pm 21.3 NNW 4 5 1015.1 - - - - - - - - -
19/07:00pm 21.4 NNW 4 5 1014.6 - - - - - - - - -
19/06:30pm 21.6 W 5 7 1014.1 - - - - - - - - -
19/06:00pm 21.7 W 6 9 1013.9 - - - - - - - - -
19/05:30pm 21.9 W 9 11 1013.5 - - - - - - - - -
19/05:00pm 22.6 WNW 9 12 1013.5 - - - - - - - - -
19/04:30pm 23.3 WNW 12 14 1013.2 - - - - - - - - -
19/04:00pm 24.2 WNW 11 13 1013.1 - - - - - - - - -
19/03:30pm 25.0 WNW 11 12 1013.0 - - - - - - - - -
19/03:00pm 25.2 W 9 10 1013.3 - - - - - - - - -
19/02:30pm 25.1 W 9 10 1013.4 - - - - - - - - -
19/02:00pm 25.7 W 6 8 1013.3 - - - - - - - - -
19/01:30pm 26.9 SSW 4 5 1013.6 - - - - - - - - -
19/01:00pm 27.2 S 4 4 1014.4 - - - - - - - - -
19/12:30pm 26.8 SE 4 4 1014.7 - - - - - - - - -
19/12:00pm 26.6 E 7 7 1015.3 - - - - - - - - -
19/11:30am 24.7 ESE 6 8 1015.9 - - - - - - - - -
19/11:00am 22.9 SE 6 7 1016.4 - - - - - - - - -
19/10:30am 21.3 SE 7 8 1016.8 - - - - - - - - -
19/10:00am 18.7 SE 7 8 1017.3 - - - - - - - - -
19/09:30am 17.7 SE 8 9 1017.5 - - - - - - - - -
19/09:00am 17.2 ESE 4 6 1017.5 - - - - - - - - -
19/08:30am 17.3 ESE 7 8 1017.5 - - - - - - - - -
19/08:00am 16.9 E 6 8 1017.4 - - - - - - - - -
19/07:30am 16.5 E 7 8 1017.2 - - - - - - - - -
19/07:00am 16.6 E 8 9 1016.9 - - - - - - - - -
19/06:30am 16.9 E 5 6 1016.3 - - - - - - - - -
19/06:00am 16.2 E 5 7 1016.2 - - - - - - - - -
19/05:30am 16.0 E 7 8 1016.0 - - - - - - - - -
19/05:00am 17.2 ESE 6 8 1015.9 - - - - - - - - -
19/04:30am 18.5 SE 4 5 1015.8 - - - - - - - - -
19/04:00am 19.4 SSW 3 4 1015.7 - - - - - - - - -
19/03:30am 19.7 SSW 5 6 1015.8 - - - - - - - - -
19/03:00am 20.3 WSW 9 10 1015.5 - - - - - - - - -
19/02:30am 20.2 W 8 11 1015.6 - - - - - - - - -
19/02:00am 21.1 W 9 11 1015.8 - - - - - - - - -
19/01:30am 20.6 WNW 8 9 1016.0 - - - - - - - - -
19/01:00am 21.5 W 10 11 1016.2 - - - - - - - - -
19/12:30am 21.1 W 9 10 1016.6 - - - - - - - - -
19/12:00am 21.2 NNW 5 7 1016.8 - - - - - - - - -
 
Date/Time
WST
Temp

°C
Wind Pressure Rain
since 9am
mm
Weather Cloud Vis
km
Sea
Height
m
Swell
Dir
 
Speed
knots
Gust
knots
hPa Trend Height
m
Period
s
Dir
18/11:30pm 21.4 NW 5 6 1017.1 - - - - - - - - -
18/11:00pm 20.9 NNW 5 5 1017.2 - - - - - - - - -
18/10:30pm 22.4 NW 4 5 1017.2 - - - - - - - - -
18/10:00pm 21.2 NNW 4 5 1017.1 - - - - - - - - -
18/09:30pm 22.7 NW 5 5 1016.9 - - - - - - - - -
18/09:00pm 22.7 WNW 6 7 1016.9 - - - - - - - - -
18/08:30pm 22.3 WNW 7 8 1016.7 - - - - - - - - -
18/08:00pm 22.3 NW 7 8 1016.5 - - - - - - - - -
18/07:30pm 22.0 NW 7 9 1016.2 - - - - - - - - -
18/07:00pm 21.6 NNW 6 9 1015.6 - - - - - - - - -
18/06:30pm 21.9 NNW 8 11 1015.3 - - - - - - - - -
18/06:00pm 23.2 NNW 9 11 1014.8 - - - - - - - - -
18/05:30pm 22.9 WNW 12 15 1014.4 - - - - - - - - -
18/05:00pm 23.7 W 11 13 1014.1 - - - - - - - - -
18/04:30pm 25.1 W 11 13 1013.8 - - - - - - - - -
18/04:00pm 26.0 W 10 12 1013.6 - - - - - - - - -
18/03:30pm 26.0 W 11 12 1013.5 - - - - - - - - -
18/03:00pm 24.7 WSW 11 12 1013.6 - - - - - - - - -
18/02:30pm 25.6 SW 12 13 1013.8 - - - - - - - - -
18/02:00pm 26.2 SW 10 11 1014.1 - - - - - - - - -
18/01:30pm 25.8 SSW 8 10 1014.3 - - - - - - - - -
18/01:00pm 26.1 S 7 8 1014.8 - - - - - - - - -
18/12:30pm 25.7 S 6 8 1015.2 - - - - - - - - -
18/12:00pm 25.9 SE 8 9 1015.7 - - - - - - - - -
18/11:30am 25.6 ESE 11 12 1016.2 - - - - - - - - -
18/11:00am 24.1 ESE 12 13 1016.6 - - - - - - - - -
18/10:30am 24.0 ESE 10 13 1017.1 - - - - - - - - -

Other Formats:

Comma delimited format used in spreadsheet applications
http://www.bom.gov.au/fwo/IDW60701/IDW60701.95202.axf

JavaScript Object Notation format (JSON) in row-major order
http://www.bom.gov.au/fwo/IDW60701/IDW60701.95202.json